• Join FlightAware (Why Join?)
  • Login
  • US Flag 
12:33AM EDT


 

Airport Tracker/Info


-or-


 

Live Flight TrackerFlight Track Log ✈ N8953G ✈ 26-Aug-2013 ✈ KMCN - KTBR

Flight Track Log - Related Links

Times and Time Zones

All times are in EDT time to prevent confusion due to time zone crossing. See the N8953G flight status page for this flight to view local times or setup timezone preferences in your user account.

Time Position Orientation Groundspeed Altitude Reporting Facility
EDT Latitude Longitude Course Direction KTS MPH feet Rate Location/Type
11:34AM 32.6333 -82.9833 90° East 122 140 5,500  Level Atlanta TRACON
11:35AM 32.6333 -82.9333 90° East 117 135 5,500  Level Atlanta TRACON
11:36AM 32.6200 -82.8994 115° Southeast 126 145 5,500  Level Atlanta Center
11:37AM 32.6133 -82.8600 101° East 126 145 5,500  Level Atlanta Center
11:38AM 32.6108 -82.8231 95° East 121 139 5,500  Level Atlanta Center
11:39AM 32.6064 -82.7861 98° East 121 139 5,500  Level Atlanta Center
11:40AM 32.6039 -82.7469 94° East 121 139 5,600  Climbing Atlanta Center
11:41AM 32.5994 -82.7050 97° East 121 139 5,600 -60 Level Atlanta Center
11:42AM 32.5947 -82.6681 99° East 121 139 5,500 -60 Descending Atlanta Center
11:43AM 32.5881 -82.6311 102° East 121 139 5,500  Level Atlanta Center
11:44AM 32.5833 -82.5917 98° East 121 139 5,500  Level Atlanta Center
11:45AM 32.5808 -82.5525 94° East 121 139 5,500  Level Atlanta Center
11:46AM 32.5742 -82.5156 102° East 121 139 5,500  Level Atlanta Center
11:47AM 32.5694 -82.4811 99° East 121 139 5,600  Climbing Atlanta Center
11:49AM 32.5622 -82.4019 96° East 125 144 5,500 -60 Descending Jacksonville Center
11:50AM 32.5578 -82.3625 98° East 119 137 5,500 -60 Level Jacksonville Center
11:51AM 32.5556 -82.3281 94° East 119 137 5,400 -60 Descending Jacksonville Center
11:52AM 32.5492 -82.2814 99° East 124 143 5,400 -60 Level Jacksonville Center
11:53AM 32.5450 -82.2494 99° East 118 136 5,300 -120 Descending Jacksonville Center
11:54AM 32.5406 -82.2075 97° East 118 136 5,200  Descending Jacksonville Center
11:55AM 32.5361 -82.1681 98° East 118 136 5,400 120 Climbing Jacksonville Center
11:56AM 32.5317 -82.1361 99° East 113 130 5,500  Climbing Jacksonville Center
11:57AM 32.5253 -82.0992 102° East 113 130 5,500  Level Jacksonville Center
11:58AM 32.5228 -82.0597 94° East 113 130 5,500  Level Jacksonville Center